Time;durP1;ratioP1;P1;durP2;ratioP2;P2;SDS_P1;SDS_P2;PMS_P1;PMS_P2;Temp;Humidity;BMP_temperature;BMP_pressure;BME280_temperature;BME280_humidity;BME280_pressure;Samples;Min_cycle;Max_cycle;Signal;HPM_P1;HPM_P2
2022/05/20 00:07:40;;;;;;;7.00;4.30;;;18.40;99.90;;;;;;20920497;28;20490;-77
2022/05/20 00:17:41;;;;;;;6.40;4.13;;;18.40;99.90;;;;;;20902240;28;20040;-77
2022/05/20 00:27:42;;;;;;;6.00;4.03;;;18.30;99.90;;;;;;20919394;28;20491;-78
2022/05/20 00:37:44;;;;;;;10.13;4.93;;;18.10;99.90;;;;;;20918655;28;20124;-77
2022/05/20 00:47:45;;;;;;;6.53;4.43;;;18.00;99.90;;;;;;20917998;28;20033;-77
2022/05/20 00:58:00;;;;;;;10.33;3.63;;;18.00;99.90;;;;;;20898027;28;20036;-77
2022/05/20 01:08:01;;;;;;;10.02;4.30;;;18.00;99.90;;;;;;20898333;28;20029;-77
2022/05/20 01:18:03;;;;;;;9.55;4.10;;;18.00;99.90;;;;;;20915622;28;20028;-77
2022/05/20 01:28:04;;;;;;;6.53;3.80;;;17.80;99.90;;;;;;20922360;28;20086;-77
2022/05/20 01:38:06;;;;;;;6.87;4.47;;;17.70;99.90;;;;;;20917363;28;20362;-76
2022/05/20 01:48:58;;;;;;;9.18;4.47;;;17.50;99.90;;;;;;20895869;28;20059;-76
2022/05/20 01:59:05;;;;;;;5.80;3.97;;;17.40;99.90;;;;;;20877037;22;20046;-77
2022/05/20 02:09:14;;;;;;;4.75;3.80;;;17.30;99.90;;;;;;20828658;28;20116;-77
2022/05/20 02:19:29;;;;;;;8.32;3.80;;;17.20;99.90;;;;;;20810794;28;20044;-77
2022/05/20 02:29:40;;;;;;;7.03;4.60;;;17.10;99.90;;;;;;20827717;28;20087;-76
2022/05/20 02:39:41;;;;;;;5.53;4.00;;;16.90;99.90;;;;;;20826937;28;20068;-76
2022/05/20 02:49:42;;;;;;;14.23;4.47;;;16.90;99.90;;;;;;20826273;28;20034;-76
2022/05/20 03:10:03;;;;;;;8.07;4.13;;;16.70;99.90;;;;;;20825329;28;20120;-76
2022/05/20 03:20:06;;;;;;;9.13;4.50;;;16.60;99.90;;;;;;20828686;28;20026;-76
2022/05/20 03:30:09;;;;;;;6.13;4.75;;;16.60;99.90;;;;;;20823629;28;20049;-76
2022/05/20 03:40:10;;;;;;;8.18;4.40;;;16.50;99.90;;;;;;20840985;28;20479;-76
2022/05/20 03:50:11;;;;;;;10.00;4.47;;;16.50;99.90;;;;;;20822466;28;20033;-76
2022/05/20 04:00:13;;;;;;;5.73;4.30;;;16.50;99.90;;;;;;20821600;28;20120;-76
2022/05/20 04:10:13;;;;;;;;;;;16.50;99.90;;;;;;20844581;28;20033;-77
2022/05/20 04:20:14;;;;;;;5.20;3.77;;;16.40;99.90;;;;;;20829140;28;20276;-77
2022/05/20 04:30:15;;;;;;;8.50;4.20;;;16.40;99.90;;;;;;20835141;28;20658;-76
2022/05/20 04:40:16;;;;;;;7.50;4.30;;;16.20;99.90;;;;;;20836359;28;20064;-76
2022/05/20 04:50:17;;;;;;;9.67;6.03;;;16.20;99.90;;;;;;20835534;28;20030;-76
2022/05/20 05:00:24;;;;;;;9.87;5.73;;;16.30;99.90;;;;;;20834917;28;20021;-77
2022/05/20 05:10:29;;;;;;;8.07;5.60;;;16.50;99.90;;;;;;20833561;28;20061;-75
2022/05/20 05:20:32;;;;;;;13.20;5.63;;;16.70;99.90;;;;;;20832356;28;20026;-76
2022/05/20 05:30:33;;;;;;;9.70;5.50;;;17.10;99.90;;;;;;20832293;28;20369;-77
2022/05/20 05:40:34;;;;;;;7.15;5.45;;;17.30;99.90;;;;;;20813327;28;20040;-76
2022/05/20 05:50:38;;;;;;;7.73;5.27;;;17.50;99.90;;;;;;20812922;28;20429;-77
2022/05/20 06:00:39;;;;;;;9.90;5.00;;;17.80;99.90;;;;;;20829916;28;20052;-77
2022/05/20 06:10:40;;;;;;;8.20;5.07;;;18.10;99.90;;;;;;20829463;28;20033;-77
2022/05/20 06:20:41;;;;;;;;;;;18.50;99.90;;;;;;20828976;28;20025;-77
2022/05/20 06:30:43;;;;;;;8.43;4.15;;;19.00;99.90;;;;;;20828249;28;20334;-76
2022/05/20 06:40:47;;;;;;;10.98;3.92;;;19.50;99.90;;;;;;20827043;28;20109;-77
2022/05/20 06:50:48;;;;;;;8.25;4.38;;;20.20;99.90;;;;;;20841359;28;20033;-77
2022/05/20 07:00:48;;;;;;;8.20;4.93;;;20.50;99.90;;;;;;20825750;28;20045;-77
2022/05/20 07:10:49;;;;;;;6.33;5.13;;;20.80;99.90;;;;;;20840845;28;20030;-77
2022/05/20 07:20:50;;;;;;;7.75;4.28;;;22.00;99.90;;;;;;20825273;28;20033;-77
2022/05/20 07:30:51;;;;;;;21.02;4.28;;;22.20;99.90;;;;;;20835269;28;20122;-78
2022/05/20 07:40:55;;;;;;;9.43;3.60;;;22.90;99.90;;;;;;20843147;28;20447;-78
2022/05/20 07:51:00;;;;;;;12.50;3.78;;;23.80;99.90;;;;;;20834226;28;20295;-78
2022/05/20 08:01:03;;;;;;;7.97;3.75;;;23.50;99.90;;;;;;20880960;22;20053;-73
2022/05/20 08:11:03;;;;;;;5.22;3.42;;;23.80;99.90;;;;;;20916108;28;20033;-73
2022/05/20 08:21:04;;;;;;;;;;;25.00;99.90;;;;;;20903855;28;20048;-73
2022/05/20 08:31:05;;;;;;;16.67;5.10;;;25.80;99.90;;;;;;20918962;28;20000;-73
2022/05/20 08:41:06;;;;;;;14.15;3.60;;;26.40;99.90;;;;;;20918787;28;20029;-73
2022/05/20 08:51:07;;;;;;;10.38;3.88;;;25.90;99.90;;;;;;20917676;28;20086;-73
2022/05/20 09:01:08;;;;;;;6.57;3.58;;;25.90;99.90;;;;;;20916767;28;20123;-73
2022/05/20 09:11:15;;;;;;;6.05;3.67;;;27.30;99.90;;;;;;20916640;28;20508;-73
2022/05/20 09:21:35;;;;;;;7.68;3.65;;;27.90;99.90;;;;;;20913360;28;20033;-73
2022/05/20 09:31:43;;;;;;;8.93;3.20;;;28.50;99.90;;;;;;20896581;28;20029;-73
2022/05/20 09:41:47;;;;;;;5.82;3.50;;;28.10;99.90;;;;;;20915532;28;20075;-73
2022/05/20 09:51:57;;;;;;;9.95;3.42;;;26.50;99.90;;;;;;20895416;28;20041;-73
2022/05/20 10:02:07;;;;;;;9.77;3.77;;;28.40;99.90;;;;;;20912258;28;20041;-73
2022/05/20 10:12:17;;;;;;;5.85;3.67;;;27.70;99.90;;;;;;20911692;28;20320;-73
2022/05/20 10:22:21;;;;;;;12.48;3.80;;;26.90;99.90;;;;;;20910870;28;20044;-73
2022/05/20 10:33:09;;;;;;;5.18;2.92;;;29.10;99.90;;;;;;20909673;28;20108;-73
2022/05/20 10:48:34;;;;;;;8.65;3.45;;;31.10;99.90;;;;;;20891188;28;20411;-73
2022/05/20 10:54:15;;;;;;;6.60;2.63;;;29.50;99.90;;;;;;20906832;28;20090;-74
2022/05/20 11:04:51;;;;;;;10.30;3.90;;;30.10;99.90;;;;;;20906615;28;20025;-74
2022/05/20 11:14:57;;;;;;;6.90;3.05;;;30.40;99.90;;;;;;20907489;28;20025;-74
2022/05/20 11:25:01;;;;;;;4.60;2.72;;;30.70;99.90;;;;;;20907059;28;20029;-74
2022/05/20 11:35:07;;;;;;;8.00;3.25;;;31.80;99.90;;;;;;20906899;28;20029;-74
2022/05/20 11:45:56;;;;;;;4.40;2.38;;;31.60;99.90;;;;;;20917039;28;20070;-74
2022/05/20 11:56:08;;;;;;;8.52;3.15;;;32.20;99.90;;;;;;20868027;28;20049;-74
2022/05/20 12:06:09;;;;;;;5.80;2.92;;;32.30;99.90;;;;;;20921667;28;20102;-73
2022/05/20 12:16:15;;;;;;;10.85;3.13;;;31.60;99.90;;;;;;20920888;28;20037;-73
2022/05/20 12:26:24;;;;;;;9.23;2.83;;;31.60;99.90;;;;;;20918190;28;20031;-72
2022/05/20 12:36:27;;;;;;;7.55;2.60;;;32.50;99.90;;;;;;20904388;28;20071;-73
2022/05/20 12:46:59;;;;;;;10.80;2.40;;;32.30;99.90;;;;;;20911714;28;20044;-74
2022/05/20 12:57:13;;;;;;;9.68;2.20;;;32.60;99.90;;;;;;20908038;28;20049;-73
2022/05/20 13:07:18;;;;;;;9.98;2.78;;;31.90;99.90;;;;;;20894384;28;20037;-74
2022/05/20 13:17:21;;;;;;;6.78;2.22;;;31.90;99.90;;;;;;20888134;28;20454;-74
2022/05/20 13:27:22;;;;;;;4.93;2.47;;;31.80;99.90;;;;;;20899015;28;20119;-74
2022/05/20 13:37:40;;;;;;;9.05;2.50;;;31.60;99.90;;;;;;20900658;28;20139;-74
2022/05/20 14:08:05;;;;;;;7.07;2.10;;;31.60;98.40;;;;;;20595012;28;20039;-81
2022/05/20 14:18:29;;;;;;;8.45;1.90;;;31.80;94.80;;;;;;20575466;28;20479;-82
2022/05/20 14:28:50;;;;;;;6.47;1.75;;;31.80;94.30;;;;;;20592770;28;20041;-83
2022/05/20 14:38:52;;;;;;;12.25;1.60;;;32.10;91.90;;;;;;20592728;28;20027;-84
2022/05/20 14:48:54;;;;;;;4.40;1.50;;;32.30;91.90;;;;;;20572644;28;20507;-82
2022/05/20 14:58:58;;;;;;;6.93;1.77;;;32.20;90.30;;;;;;20571795;28;20039;-83
2022/05/20 15:09:00;;;;;;;8.00;2.67;;;32.10;92.20;;;;;;20571412;28;20037;-85
2022/05/20 15:19:00;;;;;;;8.05;3.15;;;31.20;98.70;;;;;;20586426;28;20053;-86
2022/05/20 15:29:02;;;;;;;9.45;2.35;;;31.10;99.90;;;;;;20553029;28;20067;-82
2022/05/20 15:39:04;;;;;;;7.97;2.67;;;30.60;99.90;;;;;;20553348;28;20419;-83
2022/05/20 15:49:05;;;;;;;5.85;2.50;;;29.70;99.90;;;;;;20569329;28;20027;-84
2022/05/20 15:59:07;;;;;;;6.35;2.30;;;29.10;99.90;;;;;;20587287;28;20045;-82
2022/05/20 16:09:10;;;;;;;5.43;1.63;;;28.80;99.90;;;;;;20577908;28;20034;-80
2022/05/20 16:19:11;;;;;;;18.92;2.42;;;28.40;99.60;;;;;;20591242;28;20030;-83
2022/05/20 16:29:12;;;;;;;13.65;2.83;;;28.50;98.90;;;;;;20595545;28;20114;-83
2022/05/20 16:39:13;;;;;;;10.88;2.28;;;28.90;98.30;;;;;;20586454;28;20133;-80
2022/05/20 16:49:18;;;;;;;12.13;2.97;;;29.10;97.80;;;;;;20599700;28;20026;-82
2022/05/20 17:09:38;;;;;;;11.82;2.80;;;28.70;98.10;;;;;;20602040;28;20479;-82
2022/05/20 17:19:39;;;;;;;10.32;2.30;;;28.50;99.20;;;;;;20641574;28;20430;-80
2022/05/20 17:29:44;;;;;;;14.43;2.50;;;28.50;98.90;;;;;;20673084;28;20059;-81
2022/05/20 17:39:46;;;;;;;15.93;2.58;;;28.00;98.50;;;;;;20639600;28;20038;-81
2022/05/20 17:49:46;;;;;;;9.35;1.90;;;27.70;99.00;;;;;;20573804;28;20034;-80
2022/05/20 17:59:47;;;;;;;10.15;2.38;;;27.40;98.50;;;;;;20559754;28;20077;-79
2022/05/20 18:09:48;;;;;;;9.82;2.05;;;27.30;99.20;;;;;;20543849;28;20046;-80
2022/05/20 18:19:49;;;;;;;13.70;2.28;;;27.10;99.00;;;;;;20558374;28;20034;-79
2022/05/20 18:29:50;;;;;;;11.13;3.38;;;26.70;99.90;;;;;;20629947;28;20030;-80
2022/05/20 18:39:51;;;;;;;11.25;3.45;;;26.30;99.90;;;;;;20624249;28;20061;-79
2022/05/20 18:49:54;;;;;;;14.35;2.78;;;25.90;99.90;;;;;;20631380;28;20117;-81
2022/05/20 18:59:54;;;;;;;7.90;2.30;;;25.60;99.90;;;;;;20609704;28;20045;-80
2022/05/20 19:09:55;;;;;;;;;;;25.30;99.90;;;;;;20589364;28;20035;-81
2022/05/20 19:19:56;;;;;;;8.50;3.03;;;24.80;99.90;;;;;;20570591;28;19932;-82
2022/05/20 19:29:57;;;;;;;9.77;3.20;;;24.80;99.90;;;;;;20590819;28;20051;-81
2022/05/20 19:39:58;;;;;;;;;;;24.60;99.90;;;;;;20593405;28;20027;-83
2022/05/20 19:49:59;;;;;;;15.27;3.40;;;24.60;99.90;;;;;;20669700;28;19949;-82
2022/05/20 20:10:20;;;;;;;8.95;2.20;;;24.70;99.90;;;;;;20689262;28;19914;-81
2022/05/20 20:20:21;;;;;;;;;;;25.40;99.90;;;;;;20681991;28;20054;-81
2022/05/20 20:30:21;;;;;;;57.85;28.02;;;25.70;99.90;;;;;;20661237;28;19913;-80
2022/05/20 20:40:22;;;;;;;;;;;25.40;99.90;;;;;;20653525;28;20600;-81
2022/05/20 20:50:23;;;;;;;12.77;2.67;;;25.30;99.90;;;;;;20640063;28;20386;-81
2022/05/20 21:00:24;;;;;;;11.48;2.50;;;24.90;99.90;;;;;;20680197;28;20038;-80
2022/05/20 21:10:25;;;;;;;11.07;3.28;;;24.50;99.90;;;;;;20666586;28;20529;-80
2022/05/20 21:20:27;;;;;;;9.77;2.72;;;24.30;99.90;;;;;;20650085;28;20514;-84
2022/05/20 21:30:28;;;;;;;12.05;2.83;;;24.10;99.90;;;;;;20661020;28;20049;-83
2022/05/20 21:40:29;;;;;;;;;;;23.80;99.90;;;;;;20621033;28;20721;-82
2022/05/20 21:50:30;;;;;;;12.38;3.10;;;23.60;99.90;;;;;;20596343;28;20282;-82
2022/05/20 22:10:50;;;;;;;11.40;3.50;;;23.40;99.90;;;;;;20588110;28;20689;-83
2022/05/20 22:20:51;;;;;;;17.97;4.00;;;23.30;99.90;;;;;;20631244;28;20422;-85
2022/05/20 22:30:52;;;;;;;13.37;5.27;;;22.90;99.90;;;;;;20629103;28;20457;-86
2022/05/20 22:40:53;;;;;;;12.73;4.67;;;21.90;99.90;;;;;;20632958;28;20042;-85
2022/05/20 22:50:54;;;;;;;11.93;6.03;;;20.80;99.90;;;;;;20627768;28;20080;-84
2022/05/20 23:00:55;;;;;;;12.60;6.33;;;20.20;99.90;;;;;;20582231;28;20520;-85
2022/05/20 23:10:56;;;;;;;9.83;5.27;;;19.80;99.90;;;;;;20562200;28;20105;-86
2022/05/20 23:20:57;;;;;;;;;;;19.70;99.90;;;;;;20564294;28;20031;-85
2022/05/20 23:31:00;;;;;;;23.47;9.27;;;19.20;99.90;;;;;;20634118;28;19914;-85
2022/05/20 23:41:01;;;;;;;17.75;9.65;;;18.90;99.90;;;;;;20635228;28;20034;-85
2022/05/20 23:51:02;;;;;;;15.13;7.67;;;18.60;99.90;;;;;;20641376;28;20037;-84
